sensor_id;sensor_type;location;lat;lon;timestamp;pressure;altitude;pressure_sealevel;temperature;humidity
13068;BME280;6600;51.362;6.686;2024-03-23T00:53:41;100605.69;;;9.21;100.00
13068;BME280;6600;51.362;6.686;2024-03-23T00:56:06;100614.63;;;8.89;100.00
13068;BME280;6600;51.362;6.686;2024-03-23T00:58:32;100613.97;;;8.87;100.00
13068;BME280;6600;51.362;6.686;2024-03-23T01:00:57;100601.25;;;8.89;100.00
13068;BME280;6600;51.362;6.686;2024-03-23T01:03:22;100609.47;;;8.81;100.00
13068;BME280;6600;51.362;6.686;2024-03-23T01:05:48;100603.91;;;8.49;100.00
13068;BME280;6600;51.362;6.686;2024-03-23T01:08:14;100608.66;;;8.47;99.97
13068;BME280;6600;51.362;6.686;2024-03-23T01:10:39;100618.50;;;8.67;99.67
13068;BME280;6600;51.362;6.686;2024-03-23T01:13:04;100610.09;;;8.70;98.99
13068;BME280;6600;51.362;6.686;2024-03-23T01:15:30;100600.84;;;8.52;97.52
13068;BME280;6600;51.362;6.686;2024-03-23T01:17:55;100603.09;;;8.62;96.85
13068;BME280;6600;51.362;6.686;2024-03-23T01:20:20;100588.13;;;8.54;96.85
13068;BME280;6600;51.362;6.686;2024-03-23T01:22:46;100584.22;;;8.50;96.58
13068;BME280;6600;51.362;6.686;2024-03-23T01:25:11;100590.38;;;8.57;96.19
13068;BME280;6600;51.362;6.686;2024-03-23T01:27:36;100588.53;;;8.51;95.63
13068;BME280;6600;51.362;6.686;2024-03-23T01:30:02;100582.31;;;8.31;95.72
13068;BME280;6600;51.362;6.686;2024-03-23T01:32:27;100587.28;;;8.60;94.97
13068;BME280;6600;51.362;6.686;2024-03-23T01:34:53;100585.22;;;8.76;95.00
13068;BME280;6600;51.362;6.686;2024-03-23T01:37:18;100571.84;;;8.76;94.68
13068;BME280;6600;51.362;6.686;2024-03-23T01:39:43;100564.66;;;8.83;94.44
13068;BME280;6600;51.362;6.686;2024-03-23T01:42:09;100563.44;;;8.92;94.61
13068;BME280;6600;51.362;6.686;2024-03-23T01:44:34;100569.56;;;9.05;94.61
13068;BME280;6600;51.362;6.686;2024-03-23T01:46:59;100563.78;;;9.15;94.47
13068;BME280;6600;51.362;6.686;2024-03-23T01:49:24;100555.97;;;9.20;94.54
13068;BME280;6600;51.362;6.686;2024-03-23T01:51:50;100562.31;;;9.26;94.92
13068;BME280;6600;51.362;6.686;2024-03-23T01:54:16;100555.72;;;9.28;95.15
13068;BME280;6600;51.362;6.686;2024-03-23T01:56:41;100557.97;;;9.31;95.60
13068;BME280;6600;51.362;6.686;2024-03-23T01:59:07;100561.25;;;9.33;95.94
13068;BME280;6600;51.362;6.686;2024-03-23T02:01:34;100551.00;;;9.30;96.33
13068;BME280;6600;51.362;6.686;2024-03-23T02:04:01;100537.84;;;9.22;96.55
13068;BME280;6600;51.362;6.686;2024-03-23T02:06:27;100541.13;;;9.24;96.64
13068;BME280;6600;51.362;6.686;2024-03-23T02:08:53;100539.72;;;9.15;96.18
13068;BME280;6600;51.362;6.686;2024-03-23T02:11:19;100529.22;;;9.20;96.30
13068;BME280;6600;51.362;6.686;2024-03-23T02:13:44;100531.06;;;9.20;96.38
13068;BME280;6600;51.362;6.686;2024-03-23T02:16:10;100525.53;;;9.14;97.02
13068;BME280;6600;51.362;6.686;2024-03-23T02:18:35;100528.81;;;9.17;96.66
13068;BME280;6600;51.362;6.686;2024-03-23T02:21:01;100517.78;;;8.93;96.99
13068;BME280;6600;51.362;6.686;2024-03-23T02:23:26;100519.09;;;8.65;97.93
13068;BME280;6600;51.362;6.686;2024-03-23T02:25:52;100516.78;;;8.88;97.39
13068;BME280;6600;51.362;6.686;2024-03-23T02:28:18;100510.41;;;8.89;96.67
13068;BME280;6600;51.362;6.686;2024-03-23T02:30:44;100514.03;;;9.07;95.92
13068;BME280;6600;51.362;6.686;2024-03-23T02:33:09;100526.78;;;9.12;95.80
13068;BME280;6600;51.362;6.686;2024-03-23T02:35:34;100532.94;;;9.12;96.42
13068;BME280;6600;51.362;6.686;2024-03-23T02:38:00;100528.59;;;9.18;96.45
13068;BME280;6600;51.362;6.686;2024-03-23T02:40:26;100515.63;;;9.22;95.89
13068;BME280;6600;51.362;6.686;2024-03-23T02:42:52;100520.16;;;9.21;96.03
13068;BME280;6600;51.362;6.686;2024-03-23T02:45:17;100526.34;;;9.15;96.97
13068;BME280;6600;51.362;6.686;2024-03-23T02:47:43;100525.50;;;9.21;96.89
13068;BME280;6600;51.362;6.686;2024-03-23T02:50:08;100548.13;;;9.25;96.62
13068;BME280;6600;51.362;6.686;2024-03-23T02:52:34;100553.88;;;9.22;96.56
13068;BME280;6600;51.362;6.686;2024-03-23T02:55:00;100543.59;;;9.26;96.46
13068;BME280;6600;51.362;6.686;2024-03-23T02:57:27;100546.47;;;9.24;96.66
13068;BME280;6600;51.362;6.686;2024-03-23T02:59:52;100540.94;;;9.19;96.53
13068;BME280;6600;51.362;6.686;2024-03-23T03:02:17;100538.88;;;9.14;96.24
13068;BME280;6600;51.362;6.686;2024-03-23T03:04:43;100540.75;;;9.14;96.47
13068;BME280;6600;51.362;6.686;2024-03-23T03:07:08;100537.03;;;9.15;96.20
13068;BME280;6600;51.362;6.686;2024-03-23T03:09:33;100523.88;;;9.20;96.40
13068;BME280;6600;51.362;6.686;2024-03-23T03:12:01;100521.00;;;9.15;97.36
13068;BME280;6600;51.362;6.686;2024-03-23T03:14:27;100520.59;;;9.18;97.08
13068;BME280;6600;51.362;6.686;2024-03-23T03:16:53;100538.69;;;9.16;97.24
13068;BME280;6600;51.362;6.686;2024-03-23T03:19:18;100516.25;;;9.17;97.07
13068;BME280;6600;51.362;6.686;2024-03-23T03:21:44;100507.28;;;9.05;97.61
13068;BME280;6600;51.362;6.686;2024-03-23T03:24:09;100520.22;;;9.08;97.09
13068;BME280;6600;51.362;6.686;2024-03-23T03:26:34;100532.53;;;9.09;96.92
13068;BME280;6600;51.362;6.686;2024-03-23T03:29:00;100517.75;;;9.13;96.86
13068;BME280;6600;51.362;6.686;2024-03-23T03:31:25;100514.25;;;9.06;97.40
13068;BME280;6600;51.362;6.686;2024-03-23T03:33:51;100507.88;;;9.07;97.16
13068;BME280;6600;51.362;6.686;2024-03-23T03:36:16;100521.84;;;9.09;97.26
13068;BME280;6600;51.362;6.686;2024-03-23T03:38:42;100526.34;;;9.15;97.17
13068;BME280;6600;51.362;6.686;2024-03-23T03:41:07;100527.81;;;9.11;96.70
13068;BME280;6600;51.362;6.686;2024-03-23T03:43:33;100522.28;;;9.06;96.85
13068;BME280;6600;51.362;6.686;2024-03-23T03:45:59;100528.44;;;9.13;97.17
13068;BME280;6600;51.362;6.686;2024-03-23T03:48:25;100527.63;;;9.06;97.71
13068;BME280;6600;51.362;6.686;2024-03-23T03:50:50;100528.44;;;9.00;97.08
13068;BME280;6600;51.362;6.686;2024-03-23T03:53:15;100527.66;;;8.99;97.20
13068;BME280;6600;51.362;6.686;2024-03-23T03:55:41;100528.44;;;9.06;97.16
13068;BME280;6600;51.362;6.686;2024-03-23T03:58:06;100528.06;;;9.03;97.12
13068;BME280;6600;51.362;6.686;2024-03-23T04:00:32;100530.72;;;8.96;97.42
13068;BME280;6600;51.362;6.686;2024-03-23T04:02:57;100520.69;;;8.66;98.34
13068;BME280;6600;51.362;6.686;2024-03-23T04:05:23;100520.88;;;8.84;98.36
13068;BME280;6600;51.362;6.686;2024-03-23T04:07:48;100521.69;;;8.91;97.99
13068;BME280;6600;51.362;6.686;2024-03-23T04:10:14;100519.81;;;8.98;97.98
13068;BME280;6600;51.362;6.686;2024-03-23T04:12:43;100518.19;;;8.90;98.30
13068;BME280;6600;51.362;6.686;2024-03-23T04:15:09;100521.50;;;8.86;98.33
13068;BME280;6600;51.362;6.686;2024-03-23T04:17:35;100523.16;;;8.74;98.59
13068;BME280;6600;51.362;6.686;2024-03-23T04:20:01;100522.31;;;8.86;98.47
13068;BME280;6600;51.362;6.686;2024-03-23T04:22:28;100513.75;;;8.65;98.49
13068;BME280;6600;51.362;6.686;2024-03-23T04:24:54;100510.41;;;8.76;98.37
13068;BME280;6600;51.362;6.686;2024-03-23T04:27:19;100507.97;;;8.68;98.58
13068;BME280;6600;51.362;6.686;2024-03-23T04:29:51;100503.00;;;8.84;99.04
13068;BME280;6600;51.362;6.686;2024-03-23T04:32:16;100510.44;;;8.62;99.16
13068;BME280;6600;51.362;6.686;2024-03-23T04:34:43;100493.56;;;8.82;98.91
13068;BME280;6600;51.362;6.686;2024-03-23T04:37:09;100501.41;;;8.63;98.98
13068;BME280;6600;51.362;6.686;2024-03-23T04:39:35;100496.66;;;8.79;98.80
13068;BME280;6600;51.362;6.686;2024-03-23T04:42:01;100503.47;;;8.48;100.00
13068;BME280;6600;51.362;6.686;2024-03-23T04:44:26;100501.81;;;8.60;100.00
13068;BME280;6600;51.362;6.686;2024-03-23T04:46:51;100499.56;;;8.57;100.00
13068;BME280;6600;51.362;6.686;2024-03-23T04:49:17;100492.16;;;8.59;99.98
13068;BME280;6600;51.362;6.686;2024-03-23T04:51:42;100492.38;;;8.38;100.00
13068;BME280;6600;51.362;6.686;2024-03-23T04:54:11;100495.63;;;8.67;100.00
13068;BME280;6600;51.362;6.686;2024-03-23T04:56:37;100493.59;;;8.75;99.79
13068;BME280;6600;51.362;6.686;2024-03-23T04:59:02;100497.88;;;8.76;99.40
13068;BME280;6600;51.362;6.686;2024-03-23T05:01:30;100499.13;;;8.74;99.57
13068;BME280;6600;51.362;6.686;2024-03-23T05:03:56;100491.53;;;8.71;99.26
13068;BME280;6600;51.362;6.686;2024-03-23T05:06:22;100506.78;;;8.50;100.00
13068;BME280;6600;51.362;6.686;2024-03-23T05:08:47;100500.16;;;8.66;100.00
13068;BME280;6600;51.362;6.686;2024-03-23T05:11:13;100504.88;;;8.71;100.00
13068;BME280;6600;51.362;6.686;2024-03-23T05:13:38;100503.88;;;8.19;100.00
13068;BME280;6600;51.362;6.686;2024-03-23T05:16:04;100506.78;;;8.44;100.00
13068;BME280;6600;51.362;6.686;2024-03-23T05:18:29;100511.88;;;8.58;100.00
13068;BME280;6600;51.362;6.686;2024-03-23T05:20:56;100507.97;;;8.41;100.00
13068;BME280;6600;51.362;6.686;2024-03-23T05:23:22;100513.31;;;8.41;100.00
13068;BME280;6600;51.362;6.686;2024-03-23T05:25:48;100512.53;;;8.47;100.00
13068;BME280;6600;51.362;6.686;2024-03-23T05:28:13;100517.44;;;8.63;100.00
13068;BME280;6600;51.362;6.686;2024-03-23T05:30:39;100521.53;;;8.59;100.00
13068;BME280;6600;51.362;6.686;2024-03-23T05:33:05;100510.88;;;8.53;100.00
13068;BME280;6600;51.362;6.686;2024-03-23T05:35:30;100515.38;;;8.59;100.00
13068;BME280;6600;51.362;6.686;2024-03-23T05:37:55;100519.69;;;8.53;100.00
13068;BME280;6600;51.362;6.686;2024-03-23T05:40:21;100525.25;;;8.45;100.00
13068;BME280;6600;51.362;6.686;2024-03-23T05:42:46;100516.00;;;8.54;100.00
13068;BME280;6600;51.362;6.686;2024-03-23T05:45:11;100518.69;;;8.54;100.00
13068;BME280;6600;51.362;6.686;2024-03-23T05:47:37;100522.56;;;8.52;100.00
13068;BME280;6600;51.362;6.686;2024-03-23T05:50:03;100520.69;;;8.66;100.00
13068;BME280;6600;51.362;6.686;2024-03-23T05:52:28;100522.38;;;8.40;100.00
13068;BME280;6600;51.362;6.686;2024-03-23T05:54:54;100515.38;;;8.52;100.00
13068;BME280;6600;51.362;6.686;2024-03-23T05:57:20;100519.88;;;8.26;100.00
13068;BME280;6600;51.362;6.686;2024-03-23T05:59:45;100516.63;;;8.37;100.00
13068;BME280;6600;51.362;6.686;2024-03-23T06:02:11;100513.31;;;8.08;100.00
13068;BME280;6600;51.362;6.686;2024-03-23T06:04:36;100531.81;;;8.23;100.00
13068;BME280;6600;51.362;6.686;2024-03-23T06:07:02;100534.22;;;7.92;100.00
13068;BME280;6600;51.362;6.686;2024-03-23T06:09:27;100536.88;;;7.92;100.00
13068;BME280;6600;51.362;6.686;2024-03-23T06:11:56;100532.56;;;7.91;100.00
13068;BME280;6600;51.362;6.686;2024-03-23T06:14:21;100531.75;;;8.03;100.00
13068;BME280;6600;51.362;6.686;2024-03-23T06:16:47;100529.09;;;8.03;100.00
13068;BME280;6600;51.362;6.686;2024-03-23T06:19:12;100526.22;;;8.05;100.00
13068;BME280;6600;51.362;6.686;2024-03-23T06:21:43;100529.34;;;8.41;100.00
13068;BME280;6600;51.362;6.686;2024-03-23T06:24:09;100530.59;;;8.32;100.00
13068;BME280;6600;51.362;6.686;2024-03-23T06:26:34;100534.50;;;8.49;100.00
13068;BME280;6600;51.362;6.686;2024-03-23T06:28:59;100540.47;;;8.51;100.00
13068;BME280;6600;51.362;6.686;2024-03-23T06:31:25;100528.56;;;8.34;100.00
13068;BME280;6600;51.362;6.686;2024-03-23T06:33:50;100535.09;;;8.65;100.00
13068;BME280;6600;51.362;6.686;2024-03-23T06:36:15;100537.94;;;8.83;100.00
13068;BME280;6600;51.362;6.686;2024-03-23T06:38:40;100531.13;;;9.57;100.00
13068;BME280;6600;51.362;6.686;2024-03-23T06:41:06;100532.91;;;11.00;95.34
13068;BME280;6600;51.362;6.686;2024-03-23T06:43:31;100535.28;;;13.04;87.17
13068;BME280;6600;51.362;6.686;2024-03-23T06:45:57;100536.44;;;13.31;81.19
13068;BME280;6600;51.362;6.686;2024-03-23T06:48:22;100539.88;;;15.11;76.76
13068;BME280;6600;51.362;6.686;2024-03-23T06:50:48;100553.31;;;16.20;74.01
13068;BME280;6600;51.362;6.686;2024-03-23T06:53:14;100555.75;;;16.53;70.08
13068;BME280;6600;51.362;6.686;2024-03-23T06:55:39;100560.59;;;17.20;67.00
13068;BME280;6600;51.362;6.686;2024-03-23T06:58:05;100554.44;;;16.56;68.07
13068;BME280;6600;51.362;6.686;2024-03-23T07:00:31;100559.84;;;16.93;66.89
13068;BME280;6600;51.362;6.686;2024-03-23T07:02:57;100560.78;;;17.60;64.59
13068;BME280;6600;51.362;6.686;2024-03-23T07:05:22;100570.91;;;17.90;63.02
13068;BME280;6600;51.362;6.686;2024-03-23T07:07:48;100567.75;;;18.79;61.62
13068;BME280;6600;51.362;6.686;2024-03-23T07:10:13;100568.56;;;18.70;61.12
13068;BME280;6600;51.362;6.686;2024-03-23T07:12:38;100569.06;;;18.16;62.32
13068;BME280;6600;51.362;6.686;2024-03-23T07:15:04;100570.59;;;17.72;62.75
13068;BME280;6600;51.362;6.686;2024-03-23T07:17:30;100562.19;;;15.24;69.48
13068;BME280;6600;51.362;6.686;2024-03-23T07:19:55;100547.06;;;14.68;71.94
13068;BME280;6600;51.362;6.686;2024-03-23T07:22:21;100560.91;;;13.70;75.21
13068;BME280;6600;51.362;6.686;2024-03-23T07:24:46;100555.41;;;12.90;77.99
13068;BME280;6600;51.362;6.686;2024-03-23T07:27:12;100541.97;;;12.66;79.89
13068;BME280;6600;51.362;6.686;2024-03-23T07:29:37;100550.88;;;11.54;82.76
13068;BME280;6600;51.362;6.686;2024-03-23T07:32:03;100542.09;;;11.47;84.68
13068;BME280;6600;51.362;6.686;2024-03-23T07:34:28;100544.91;;;11.71;84.21
13068;BME280;6600;51.362;6.686;2024-03-23T07:36:53;100548.06;;;11.79;84.38
13068;BME280;6600;51.362;6.686;2024-03-23T07:39:19;100541.91;;;11.79;84.08
13068;BME280;6600;51.362;6.686;2024-03-23T07:41:45;100547.19;;;11.67;84.74
13068;BME280;6600;51.362;6.686;2024-03-23T07:44:10;100552.22;;;11.09;85.30
13068;BME280;6600;51.362;6.686;2024-03-23T07:46:36;100554.25;;;11.13;87.48
13068;BME280;6600;51.362;6.686;2024-03-23T07:49:01;100555.78;;;10.85;87.71
13068;BME280;6600;51.362;6.686;2024-03-23T07:51:26;100553.63;;;11.11;88.13
13068;BME280;6600;51.362;6.686;2024-03-23T07:53:52;100558.91;;;11.18;88.56
13068;BME280;6600;51.362;6.686;2024-03-23T07:56:18;100555.34;;;11.06;88.22
13068;BME280;6600;51.362;6.686;2024-03-23T07:58:45;100540.56;;;10.79;88.59
13068;BME280;6600;51.362;6.686;2024-03-23T08:01:12;100548.31;;;10.87;89.15
13068;BME280;6600;51.362;6.686;2024-03-23T08:03:40;100553.13;;;11.03;88.28
13068;BME280;6600;51.362;6.686;2024-03-23T08:06:16;100551.59;;;10.89;88.36
13068;BME280;6600;51.362;6.686;2024-03-23T08:08:44;100549.22;;;10.56;88.40
13068;BME280;6600;51.362;6.686;2024-03-23T08:11:10;100553.28;;;10.40;89.18
13068;BME280;6600;51.362;6.686;2024-03-23T08:13:38;100555.31;;;10.88;89.36
13068;BME280;6600;51.362;6.686;2024-03-23T08:16:04;100555.69;;;10.91;88.63
13068;BME280;6600;51.362;6.686;2024-03-23T08:18:30;100561.16;;;11.03;87.80
13068;BME280;6600;51.362;6.686;2024-03-23T08:21:03;100543.81;;;11.24;87.55
13068;BME280;6600;51.362;6.686;2024-03-23T08:23:34;100548.47;;;11.64;87.44
13068;BME280;6600;51.362;6.686;2024-03-23T08:26:02;100546.69;;;10.86;86.06
13068;BME280;6600;51.362;6.686;2024-03-23T08:28:28;100581.44;;;9.29;85.67
13068;BME280;6600;51.362;6.686;2024-03-23T08:30:54;100584.34;;;9.08;86.08
13068;BME280;6600;51.362;6.686;2024-03-23T08:33:20;100597.56;;;8.63;87.84
13068;BME280;6600;51.362;6.686;2024-03-23T08:35:56;100592.13;;;8.24;89.55
13068;BME280;6600;51.362;6.686;2024-03-23T08:38:23;100574.72;;;8.35;90.40
13068;BME280;6600;51.362;6.686;2024-03-23T08:40:56;100563.03;;;8.55;91.00
13068;BME280;6600;51.362;6.686;2024-03-23T08:43:22;100566.75;;;8.68;90.59
13068;BME280;6600;51.362;6.686;2024-03-23T08:45:47;100562.84;;;8.63;90.30
13068;BME280;6600;51.362;6.686;2024-03-23T08:48:13;100563.44;;;8.66;90.24
13068;BME280;6600;51.362;6.686;2024-03-23T08:50:38;100570.44;;;8.53;91.26
13068;BME280;6600;51.362;6.686;2024-03-23T08:53:03;100581.94;;;8.34;92.08
13068;BME280;6600;51.362;6.686;2024-03-23T08:55:29;100583.19;;;8.51;91.97
13068;BME280;6600;51.362;6.686;2024-03-23T08:57:55;100580.00;;;8.02;92.23
13068;BME280;6600;51.362;6.686;2024-03-23T09:00:21;100582.38;;;8.44;92.33
13068;BME280;6600;51.362;6.686;2024-03-23T09:02:50;100572.91;;;8.61;92.96
13068;BME280;6600;51.362;6.686;2024-03-23T09:05:15;100576.97;;;8.90;93.01
13068;BME280;6600;51.362;6.686;2024-03-23T09:07:41;100569.56;;;9.05;92.66
13068;BME280;6600;51.362;6.686;2024-03-23T09:10:07;100577.81;;;9.55;92.16
13068;BME280;6600;51.362;6.686;2024-03-23T09:12:32;100586.66;;;10.06;91.04
13068;BME280;6600;51.362;6.686;2024-03-23T09:14:58;100573.28;;;10.00;90.37
13068;BME280;6600;51.362;6.686;2024-03-23T09:17:23;100575.66;;;10.21;89.72
13068;BME280;6600;51.362;6.686;2024-03-23T09:19:48;100576.31;;;10.17;89.37
13068;BME280;6600;51.362;6.686;2024-03-23T09:22:14;100571.31;;;10.51;88.77
13068;BME280;6600;51.362;6.686;2024-03-23T09:24:39;100568.03;;;10.49;88.54
13068;BME280;6600;51.362;6.686;2024-03-23T09:27:05;100583.56;;;10.41;88.76
13068;BME280;6600;51.362;6.686;2024-03-23T09:29:30;100570.94;;;10.48;88.77
13068;BME280;6600;51.362;6.686;2024-03-23T09:31:56;100568.91;;;10.43;88.73
13068;BME280;6600;51.362;6.686;2024-03-23T09:34:21;100577.09;;;10.24;88.60
13068;BME280;6600;51.362;6.686;2024-03-23T09:36:47;100565.97;;;10.51;88.74
13068;BME280;6600;51.362;6.686;2024-03-23T09:39:15;100570.31;;;10.71;87.67
13068;BME280;6600;51.362;6.686;2024-03-23T09:41:40;100567.84;;;10.94;86.95
13068;BME280;6600;51.362;6.686;2024-03-23T09:44:06;100557.41;;;10.86;84.83
13068;BME280;6600;51.362;6.686;2024-03-23T09:46:32;100565.47;;;10.36;83.76
13068;BME280;6600;51.362;6.686;2024-03-23T09:49:00;100555.91;;;10.72;84.86
13068;BME280;6600;51.362;6.686;2024-03-23T09:51:25;100565.09;;;10.57;83.95
13068;BME280;6600;51.362;6.686;2024-03-23T09:53:58;100551.22;;;10.85;82.12
13068;BME280;6600;51.362;6.686;2024-03-23T09:56:24;100555.63;;;10.98;82.11
13068;BME280;6600;51.362;6.686;2024-03-23T09:58:49;100549.84;;;11.37;81.24
13068;BME280;6600;51.362;6.686;2024-03-23T10:01:15;100543.00;;;11.23;80.65
13068;BME280;6600;51.362;6.686;2024-03-23T10:03:46;100528.03;;;11.63;80.24
13068;BME280;6600;51.362;6.686;2024-03-23T10:06:12;100539.78;;;11.51;79.09
13068;BME280;6600;51.362;6.686;2024-03-23T10:08:37;100539.53;;;11.34;80.00
13068;BME280;6600;51.362;6.686;2024-03-23T10:11:21;100539.53;;;10.98;79.45
13068;BME280;6600;51.362;6.686;2024-03-23T10:13:46;100536.25;;;10.53;76.69
13068;BME280;6600;51.362;6.686;2024-03-23T10:16:12;100535.38;;;10.59;76.35
13068;BME280;6600;51.362;6.686;2024-03-23T10:18:45;100545.56;;;10.75;77.54
13068;BME280;6600;51.362;6.686;2024-03-23T10:21:11;100535.69;;;10.51;78.02
13068;BME280;6600;51.362;6.686;2024-03-23T10:23:43;100546.34;;;10.76;78.51
13068;BME280;6600;51.362;6.686;2024-03-23T10:26:21;100551.91;;;10.99;79.50
13068;BME280;6600;51.362;6.686;2024-03-23T10:29:00;100582.38;;;10.61;79.21
13068;BME280;6600;51.362;6.686;2024-03-23T10:31:32;100582.56;;;10.60;78.94
13068;BME280;6600;51.362;6.686;2024-03-23T10:33:58;100592.84;;;10.38;79.05
13068;BME280;6600;51.362;6.686;2024-03-23T10:36:25;100592.13;;;10.49;77.49
13068;BME280;6600;51.362;6.686;2024-03-23T10:38:52;100603.09;;;10.41;78.93
13068;BME280;6600;51.362;6.686;2024-03-23T10:41:18;100599.69;;;10.28;78.80
13068;BME280;6600;51.362;6.686;2024-03-23T10:43:48;100608.25;;;10.05;80.63
13068;BME280;6600;51.362;6.686;2024-03-23T10:46:15;100594.16;;;9.40;83.18
13068;BME280;6600;51.362;6.686;2024-03-23T10:48:41;100577.59;;;8.92;83.50
13068;BME280;6600;51.362;6.686;2024-03-23T10:51:07;100581.28;;;9.04;84.41
13068;BME280;6600;51.362;6.686;2024-03-23T10:53:34;100578.19;;;9.01;85.31
13068;BME280;6600;51.362;6.686;2024-03-23T10:56:00;100572.84;;;9.01;84.25
13068;BME280;6600;51.362;6.686;2024-03-23T10:58:46;100581.31;;;9.55;83.93
13068;BME280;6600;51.362;6.686;2024-03-23T11:01:13;100573.44;;;9.74;84.02
13068;BME280;6600;51.362;6.686;2024-03-23T11:03:51;100572.09;;;9.96;82.82
13068;BME280;6600;51.362;6.686;2024-03-23T11:06:38;100565.19;;;10.44;82.81
13068;BME280;6600;51.362;6.686;2024-03-23T11:14:49;100556.72;;;10.90;78.95
13068;BME280;6600;51.362;6.686;2024-03-23T11:17:22;100547.25;;;10.70;76.54
13068;BME280;6600;51.362;6.686;2024-03-23T11:20:02;100541.03;;;11.12;77.94
13068;BME280;6600;51.362;6.686;2024-03-23T11:25:02;100556.69;;;11.51;76.66
13068;BME280;6600;51.362;6.686;2024-03-23T11:27:28;100543.22;;;11.70;77.17
13068;BME280;6600;51.362;6.686;2024-03-23T11:29:53;100549.22;;;11.53;76.84
13068;BME280;6600;51.362;6.686;2024-03-23T11:32:18;100548.78;;;11.56;75.66
13068;BME280;6600;51.362;6.686;2024-03-23T11:34:44;100543.31;;;11.63;76.66
13068;BME280;6600;51.362;6.686;2024-03-23T11:37:09;100546.63;;;11.95;77.90
13068;BME280;6600;51.362;6.686;2024-03-23T11:39:34;100551.81;;;12.08;75.72
13068;BME280;6600;51.362;6.686;2024-03-23T11:42:00;100557.28;;;11.72;75.89
13068;BME280;6600;51.362;6.686;2024-03-23T11:44:26;100566.66;;;10.09;80.71
13068;BME280;6600;51.362;6.686;2024-03-23T11:46:52;100571.97;;;9.78;79.28
13068;BME280;6600;51.362;6.686;2024-03-23T11:49:25;100563.22;;;9.57;78.32
13068;BME280;6600;51.362;6.686;2024-03-23T11:51:51;100577.72;;;9.30;82.11
13068;BME280;6600;51.362;6.686;2024-03-23T11:54:26;100574.38;;;9.48;83.78
13068;BME280;6600;51.362;6.686;2024-03-23T11:59:35;100547.56;;;9.10;85.63
13068;BME280;6600;51.362;6.686;2024-03-23T12:02:14;100562.50;;;9.37;85.67
13068;BME280;6600;51.362;6.686;2024-03-23T12:04:43;100556.88;;;9.45;85.95
13068;BME280;6600;51.362;6.686;2024-03-23T12:07:19;100550.72;;;9.83;85.79
13068;BME280;6600;51.362;6.686;2024-03-23T12:09:46;100554.38;;;9.95;87.38
13068;BME280;6600;51.362;6.686;2024-03-23T12:14:44;100541.44;;;10.73;83.66
13068;BME280;6600;51.362;6.686;2024-03-23T12:17:11;100541.03;;;11.12;84.59
13068;BME280;6600;51.362;6.686;2024-03-23T12:19:36;100537.34;;;11.13;81.26
13068;BME280;6600;51.362;6.686;2024-03-23T12:22:05;100539.53;;;11.71;80.30
13068;BME280;6600;51.362;6.686;2024-03-23T12:24:31;100533.56;;;11.69;80.43
13068;BME280;6600;51.362;6.686;2024-03-23T12:27:01;100534.91;;;11.41;77.94
13068;BME280;6600;51.362;6.686;2024-03-23T12:29:34;100531.03;;;11.55;79.91
13068;BME280;6600;51.362;6.686;2024-03-23T12:32:00;100515.72;;;11.26;78.82
13068;BME280;6600;51.362;6.686;2024-03-23T12:34:26;100520.19;;;11.14;78.97
13068;BME280;6600;51.362;6.686;2024-03-23T12:36:51;100523.44;;;11.34;80.03
13068;BME280;6600;51.362;6.686;2024-03-23T12:39:16;100541.19;;;10.99;81.63
13068;BME280;6600;51.362;6.686;2024-03-23T12:41:42;100560.66;;;9.76;82.11
13068;BME280;6600;51.362;6.686;2024-03-23T12:44:07;100577.31;;;9.33;85.58
13068;BME280;6600;51.362;6.686;2024-03-23T12:46:36;100562.56;;;9.11;87.08
13068;BME280;6600;51.362;6.686;2024-03-23T12:49:02;100549.00;;;9.12;88.13
13068;BME280;6600;51.362;6.686;2024-03-23T12:51:27;100546.31;;;9.63;88.83
13068;BME280;6600;51.362;6.686;2024-03-23T12:53:52;100544.19;;;9.79;88.67
13068;BME280;6600;51.362;6.686;2024-03-23T12:56:18;100527.31;;;9.78;87.58
13068;BME280;6600;51.362;6.686;2024-03-23T12:58:43;100535.75;;;10.13;88.55
13068;BME280;6600;51.362;6.686;2024-03-23T13:01:09;100525.03;;;10.62;88.04
13068;BME280;6600;51.362;6.686;2024-03-23T13:03:34;100517.19;;;10.68;85.48
13068;BME280;6600;51.362;6.686;2024-03-23T13:05:59;100526.38;;;10.53;81.66
13068;BME280;6600;51.362;6.686;2024-03-23T13:08:25;100532.97;;;10.94;80.79
13068;BME280;6600;51.362;6.686;2024-03-23T13:10:53;100525.56;;;10.96;82.51
13068;BME280;6600;51.362;6.686;2024-03-23T13:13:18;100528.59;;;10.56;80.43
13068;BME280;6600;51.362;6.686;2024-03-23T13:15:50;100528.41;;;10.33;79.27
13068;BME280;6600;51.362;6.686;2024-03-23T13:18:16;100529.53;;;10.19;78.41
13068;BME280;6600;51.362;6.686;2024-03-23T13:20:41;100530.38;;;9.82;78.88
13068;BME280;6600;51.362;6.686;2024-03-23T13:23:06;100526.50;;;9.78;79.60
13068;BME280;6600;51.362;6.686;2024-03-23T13:25:32;100524.00;;;9.76;79.78
13068;BME280;6600;51.362;6.686;2024-03-23T13:27:58;100521.19;;;9.71;80.64
13068;BME280;6600;51.362;6.686;2024-03-23T13:30:23;100512.56;;;9.62;79.63
13068;BME280;6600;51.362;6.686;2024-03-23T13:32:48;100525.66;;;10.15;78.44
13068;BME280;6600;51.362;6.686;2024-03-23T13:35:14;100521.19;;;10.34;78.49
13068;BME280;6600;51.362;6.686;2024-03-23T13:37:39;100516.03;;;10.57;77.20
13068;BME280;6600;51.362;6.686;2024-03-23T13:40:06;100509.34;;;10.66;76.54
13068;BME280;6600;51.362;6.686;2024-03-23T13:42:31;100517.88;;;10.81;76.32
13068;BME280;6600;51.362;6.686;2024-03-23T13:44:57;100509.47;;;10.96;74.75
13068;BME280;6600;51.362;6.686;2024-03-23T13:47:22;100511.97;;;10.91;73.44
13068;BME280;6600;51.362;6.686;2024-03-23T13:49:47;100514.34;;;11.17;75.21
13068;BME280;6600;51.362;6.686;2024-03-23T13:52:14;100513.41;;;10.75;73.14
13068;BME280;6600;51.362;6.686;2024-03-23T13:54:39;100517.31;;;10.54;73.22
13068;BME280;6600;51.362;6.686;2024-03-23T13:57:10;100505.56;;;10.74;73.53
13068;BME280;6600;51.362;6.686;2024-03-23T13:59:35;100514.28;;;10.87;73.82
13068;BME280;6600;51.362;6.686;2024-03-23T14:02:01;100515.53;;;10.67;72.82
13068;BME280;6600;51.362;6.686;2024-03-23T14:04:26;100522.47;;;10.74;72.51
13068;BME280;6600;51.362;6.686;2024-03-23T14:06:51;100513.13;;;10.58;73.04